createdAt,value
2023-01-21T00:02:40.192Z,6.10
2023-01-21T00:05:52.892Z,4.50
2023-01-21T00:09:06.396Z,4.40
2023-01-21T00:12:17.177Z,4.40
2023-01-21T00:15:27.162Z,4.30
2023-01-21T00:18:30.259Z,4.20
2023-01-21T00:21:40.099Z,4.20
2023-01-21T00:24:44.678Z,4.20
2023-01-21T00:27:54.047Z,4.10
2023-01-21T00:31:06.763Z,4.10
2023-01-21T00:34:17.049Z,4.10
2023-01-21T00:37:21.222Z,4.00
2023-01-21T00:40:33.051Z,4.40
2023-01-21T00:43:43.026Z,3.90
2023-01-21T00:46:53.039Z,3.80
2023-01-21T00:50:02.129Z,1.50
2023-01-21T00:53:05.129Z,3.50
2023-01-21T00:56:19.118Z,3.80
2023-01-21T00:59:45.132Z,3.70
2023-01-21T01:03:05.548Z,3.70
2023-01-21T01:06:26.024Z,3.80
2023-01-21T01:09:35.308Z,3.80
2023-01-21T01:12:51.868Z,3.90
2023-01-21T01:16:08.901Z,3.90
2023-01-21T01:19:15.387Z,5.30
2023-01-21T01:22:30.851Z,5.70
2023-01-21T01:25:48.270Z,6.70
2023-01-21T01:28:59.572Z,4.20
2023-01-21T01:32:09.025Z,4.20
2023-01-21T01:35:12.355Z,3.70
2023-01-21T01:38:22.527Z,4.40
2023-01-21T01:41:36.008Z,4.40
2023-01-21T01:44:59.350Z,4.50
2023-01-21T01:48:06.417Z,4.50
2023-01-21T01:51:11.093Z,7.40
2023-01-21T01:54:17.709Z,3.80
2023-01-21T01:57:23.893Z,4.80
2023-01-21T02:00:28.540Z,4.80
2023-01-21T02:03:50.752Z,5.00
2023-01-21T02:06:56.013Z,4.60
2023-01-21T02:09:59.342Z,4.90
2023-01-21T02:13:02.714Z,4.90
2023-01-21T02:16:20.511Z,5.00
2023-01-21T02:20:02.253Z,7.30
2023-01-21T02:23:13.606Z,5.00
2023-01-21T02:26:52.179Z,2.90
2023-01-21T02:30:24.027Z,4.60
2023-01-21T02:33:54.505Z,4.90
2023-01-21T02:37:08.191Z,4.90
2023-01-21T02:40:16.295Z,3.20
2023-01-21T02:43:28.585Z,4.70
2023-01-21T02:46:38.659Z,4.60
2023-01-21T02:49:45.591Z,4.50
2023-01-21T02:52:56.190Z,5.50
2023-01-21T02:56:04.535Z,4.40
2023-01-21T02:59:07.767Z,4.40
2023-01-21T03:02:19.492Z,4.40
2023-01-21T03:05:28.871Z,4.30
2023-01-21T03:08:37.243Z,5.00
2023-01-21T03:11:45.166Z,4.20
2023-01-21T03:15:11.212Z,4.20
2023-01-21T03:18:20.408Z,4.10
2023-01-21T03:21:28.049Z,6.50
2023-01-21T03:24:32.827Z,3.60
2023-01-21T03:27:38.972Z,4.00
2023-01-21T03:30:45.040Z,3.90
2023-01-21T03:33:52.357Z,3.90
2023-01-21T03:36:59.257Z,3.90
2023-01-21T03:40:15.048Z,4.80
2023-01-21T03:43:18.326Z,3.80
2023-01-21T03:46:24.750Z,3.80
2023-01-21T03:49:34.622Z,5.30
2023-01-21T03:52:42.548Z,3.80
2023-01-21T03:55:45.745Z,3.80
2023-01-21T03:58:48.703Z,3.80
2023-01-21T04:01:51.652Z,3.90
2023-01-21T04:04:54.635Z,5.30
2023-01-21T04:07:58.832Z,3.50
2023-01-21T04:11:01.723Z,6.40
2023-01-21T04:14:04.877Z,1.60
2023-01-21T04:17:07.762Z,4.00
2023-01-21T04:20:12.123Z,4.00
2023-01-21T04:23:16.629Z,4.00
2023-01-21T04:26:20.058Z,5.00
2023-01-21T04:29:23.146Z,4.70
2023-01-21T04:32:26.145Z,2.20
2023-01-21T04:35:29.103Z,4.20
2023-01-21T04:38:33.434Z,5.80
2023-01-21T04:41:36.534Z,4.30
2023-01-21T04:44:39.701Z,3.70
2023-01-21T04:47:43.701Z,4.30
2023-01-21T04:50:47.525Z,6.00
2023-01-21T04:53:51.931Z,4.30
2023-01-21T04:56:54.857Z,4.30
2023-01-21T04:59:57.982Z,4.40
2023-01-21T05:03:01.776Z,4.50
2023-01-21T05:06:04.869Z,4.40
2023-01-21T05:09:09.822Z,6.50
2023-01-21T05:12:12.593Z,4.50
2023-01-21T05:15:15.730Z,4.60
2023-01-21T05:18:18.774Z,4.60
2023-01-21T05:21:21.762Z,4.70
2023-01-21T05:24:26.097Z,7.30
2023-01-21T05:27:29.185Z,4.60
2023-01-21T05:30:32.444Z,6.00
2023-01-21T05:33:36.696Z,4.70
2023-01-21T05:36:40.368Z,4.70
2023-01-21T05:39:44.999Z,4.70
2023-01-21T05:42:48.071Z,3.40
2023-01-21T05:45:51.115Z,4.60
2023-01-21T05:48:54.028Z,4.70
2023-01-21T05:51:56.989Z,4.70
2023-01-21T05:55:02.857Z,4.20
2023-01-21T05:58:06.822Z,4.70
2023-01-21T06:01:09.990Z,3.60
2023-01-21T06:04:13.337Z,4.60
2023-01-21T06:07:16.684Z,4.60
2023-01-21T06:10:21.579Z,4.60
2023-01-21T06:13:24.780Z,4.50
2023-01-21T06:16:27.765Z,4.60
2023-01-21T06:19:30.810Z,4.50
2023-01-21T06:22:33.817Z,4.90
2023-01-21T06:25:38.253Z,4.60
2023-01-21T06:28:41.205Z,2.70
2023-01-21T06:31:44.859Z,6.20
2023-01-21T06:34:48.030Z,5.60
2023-01-21T06:37:51.051Z,4.70
2023-01-21T06:40:55.431Z,4.50
2023-01-21T06:43:58.384Z,4.70
2023-01-21T06:47:01.955Z,4.70
2023-01-21T06:50:05.834Z,4.70
2023-01-21T06:53:17.409Z,4.70
2023-01-21T06:56:21.892Z,6.80
2023-01-21T06:59:24.894Z,4.60
2023-01-21T07:02:27.798Z,4.60
2023-01-21T07:05:30.792Z,4.50
2023-01-21T07:08:33.595Z,7.10
2023-01-21T07:11:37.894Z,4.60
2023-01-21T07:14:40.890Z,4.60
2023-01-21T07:17:43.870Z,3.50
2023-01-21T07:20:47.866Z,4.60
2023-01-21T07:23:53.051Z,4.60
2023-01-21T07:26:57.741Z,5.10
2023-01-21T07:30:00.873Z,6.50
2023-01-21T07:33:06.733Z,2.80
2023-01-21T07:36:10.037Z,3.60
2023-01-21T07:39:14.559Z,2.80
2023-01-21T07:42:18.941Z,4.60
2023-01-21T07:45:24.219Z,4.60
2023-01-21T07:48:27.207Z,4.60
2023-01-21T07:51:30.287Z,4.60
2023-01-21T07:54:33.379Z,6.00
2023-01-21T07:57:37.691Z,4.30
2023-01-21T08:00:40.712Z,4.60
2023-01-21T08:03:43.614Z,4.60
2023-01-21T08:06:46.599Z,4.60
2023-01-21T08:09:50.315Z,5.50
2023-01-21T08:12:54.705Z,4.70
2023-01-21T08:15:58.318Z,4.70
2023-01-21T08:19:02.470Z,4.60
2023-01-21T08:22:05.603Z,4.60
2023-01-21T08:25:09.390Z,4.60
2023-01-21T08:28:14.168Z,5.00
2023-01-21T08:31:17.317Z,4.60
2023-01-21T08:34:21.147Z,3.00
2023-01-21T08:37:24.924Z,6.90
2023-01-21T08:40:27.976Z,6.60
2023-01-21T08:43:32.351Z,4.60
2023-01-21T08:46:35.545Z,4.60
2023-01-21T08:49:38.573Z,4.60
2023-01-21T08:52:41.756Z,4.60
2023-01-21T08:55:45.101Z,4.70
2023-01-21T08:58:49.603Z,4.70
2023-01-21T09:01:54.899Z,4.70
2023-01-21T09:05:00.323Z,6.90
2023-01-21T09:08:05.955Z,4.60
2023-01-21T09:11:10.776Z,4.70
2023-01-21T09:14:21.879Z,4.70
2023-01-21T09:17:27.023Z,4.70
2023-01-21T09:20:33.029Z,4.80
2023-01-21T09:23:38.517Z,2.60
2023-01-21T09:26:48.140Z,5.00
2023-01-21T09:29:52.874Z,5.00
2023-01-21T09:32:55.865Z,6.30
2023-01-21T09:35:59.975Z,5.10
2023-01-21T09:39:03.610Z,5.90
2023-01-21T09:42:06.639Z,5.20
2023-01-21T09:45:16.915Z,4.40
2023-01-21T09:48:28.016Z,4.10
2023-01-21T09:51:44.145Z,4.90
2023-01-21T09:54:47.180Z,5.10
2023-01-21T09:58:14.465Z,5.20
2023-01-21T10:01:26.950Z,5.20
2023-01-21T10:04:41.924Z,5.20
2023-01-21T10:07:51.471Z,5.10
2023-01-21T10:10:59.287Z,6.70
2023-01-21T10:14:14.958Z,5.10
2023-01-21T10:17:27.507Z,7.50
2023-01-21T10:20:33.721Z,5.00
2023-01-21T10:23:43.067Z,4.90
2023-01-21T10:26:49.062Z,5.00
2023-01-21T10:29:56.182Z,5.20
2023-01-21T10:33:01.421Z,3.80
2023-01-21T10:36:16.649Z,4.90
2023-01-21T10:39:28.863Z,4.90
2023-01-21T10:42:49.755Z,4.90
2023-01-21T10:45:59.238Z,4.90
2023-01-21T10:49:20.909Z,4.90
2023-01-21T10:52:29.935Z,5.00
2023-01-21T10:55:45.359Z,5.00
2023-01-21T10:58:53.232Z,5.10
2023-01-21T11:02:05.909Z,5.20
2023-01-21T11:05:13.408Z,5.20
2023-01-21T11:08:20.983Z,5.20
2023-01-21T11:11:27.908Z,5.20
2023-01-21T11:14:30.959Z,5.20
2023-01-21T11:17:35.535Z,5.20
2023-01-21T11:20:45.263Z,5.30
2023-01-21T11:23:55.298Z,5.30
2023-01-21T11:27:00.771Z,3.60
2023-01-21T11:30:15.653Z,4.90
2023-01-21T11:33:28.360Z,5.40
2023-01-21T11:36:32.805Z,3.30
2023-01-21T11:39:39.985Z,6.60
2023-01-21T11:42:49.092Z,7.80
2023-01-21T11:45:52.160Z,5.50
2023-01-21T11:48:56.905Z,5.60
2023-01-21T11:52:19.269Z,5.60
2023-01-21T11:55:25.354Z,5.70
2023-01-21T11:58:33.642Z,5.70
2023-01-21T12:01:36.506Z,5.80
2023-01-21T12:04:45.964Z,6.70
2023-01-21T12:07:52.390Z,5.90
2023-01-21T12:10:57.771Z,6.40
2023-01-21T12:14:08.678Z,6.00
2023-01-21T12:17:21.916Z,6.10
2023-01-21T12:20:34.221Z,6.10
2023-01-21T12:23:50.403Z,6.20
2023-01-21T12:26:59.384Z,8.10
2023-01-21T12:30:16.519Z,6.20
2023-01-21T12:33:34.803Z,6.20
2023-01-21T12:36:42.310Z,6.40
2023-01-21T12:39:50.587Z,6.50
2023-01-21T12:42:57.010Z,6.60
2023-01-21T12:46:06.763Z,6.70
2023-01-21T12:49:16.213Z,6.70
2023-01-21T12:52:25.218Z,6.70
2023-01-21T12:55:37.939Z,6.70
2023-01-21T12:58:45.102Z,6.70
2023-01-21T13:01:56.909Z,6.70
2023-01-21T13:05:04.995Z,6.70
2023-01-21T13:08:29.101Z,8.60
2023-01-21T13:11:38.275Z,5.60
2023-01-21T13:14:46.141Z,6.80
2023-01-21T13:17:53.425Z,6.50
2023-01-21T13:21:02.323Z,7.00
2023-01-21T13:24:16.632Z,7.00
2023-01-21T13:27:28.119Z,7.00
2023-01-21T13:30:39.092Z,7.00
2023-01-21T13:33:50.700Z,6.90
2023-01-21T13:37:06.244Z,6.90
2023-01-21T13:40:30.440Z,6.30
2023-01-21T13:43:59.412Z,7.30
2023-01-21T13:47:10.716Z,6.70
2023-01-21T13:50:25.522Z,6.60
2023-01-21T13:53:44.261Z,6.60
2023-01-21T13:57:04.924Z,6.60
2023-01-21T14:00:13.835Z,6.50
2023-01-21T14:03:28.974Z,6.60
2023-01-21T14:06:37.834Z,8.60
2023-01-21T14:09:47.675Z,7.00
2023-01-21T14:13:22.056Z,6.90
2023-01-21T14:16:47.567Z,7.30
2023-01-21T14:20:06.051Z,6.50
2023-01-21T14:23:46.771Z,7.20
2023-01-21T14:27:14.987Z,6.10
2023-01-21T14:30:21.341Z,5.20
2023-01-21T14:33:35.216Z,5.40
2023-01-21T14:36:43.747Z,5.60
2023-01-21T14:39:58.523Z,5.70
2023-01-21T14:43:02.081Z,5.20
2023-01-21T14:46:25.775Z,5.10
2023-01-21T14:49:43.187Z,5.00
2023-01-21T14:52:47.544Z,2.90
2023-01-21T14:56:08.818Z,4.70
2023-01-21T14:59:30.588Z,4.20
2023-01-21T15:02:36.998Z,4.50
2023-01-21T15:05:42.646Z,4.10
2023-01-21T15:08:49.794Z,4.30
2023-01-21T15:11:57.346Z,4.20
2023-01-21T15:15:02.718Z,4.20
2023-01-21T15:18:25.473Z,4.10
2023-01-21T15:21:38.379Z,5.70
2023-01-21T15:24:41.558Z,4.20
2023-01-21T15:28:18.153Z,5.90
2023-01-21T15:31:41.948Z,3.90
2023-01-21T15:34:49.109Z,3.80
2023-01-21T15:38:00.133Z,3.80
2023-01-21T15:41:08.929Z,3.80
2023-01-21T15:44:45.409Z,3.70
2023-01-21T15:48:05.343Z,3.70
2023-01-21T15:51:22.046Z,3.60
2023-01-21T15:54:38.731Z,3.60
2023-01-21T15:57:54.017Z,5.50
2023-01-21T16:01:05.807Z,3.50
2023-01-21T16:04:22.815Z,1.80
2023-01-21T16:07:34.907Z,3.50
2023-01-21T16:10:54.441Z,3.50
2023-01-21T16:14:10.406Z,3.40
2023-01-21T16:17:25.580Z,4.10
2023-01-21T16:20:29.495Z,3.40
2023-01-21T16:23:41.261Z,3.40
2023-01-21T16:26:48.366Z,3.30
2023-01-21T16:29:57.607Z,2.60
2023-01-21T16:33:16.663Z,1.30
2023-01-21T16:36:22.018Z,3.30
2023-01-21T16:39:26.603Z,4.00
2023-01-21T16:42:36.119Z,3.30
2023-01-21T16:45:40.191Z,3.70
2023-01-21T16:48:43.519Z,3.20
2023-01-21T16:51:54.913Z,2.20
2023-01-21T16:54:59.265Z,3.20
2023-01-21T16:58:24.855Z,3.20
2023-01-21T17:01:31.184Z,5.30
2023-01-21T17:04:35.748Z,3.10
2023-01-21T17:07:46.345Z,3.20
2023-01-21T17:10:59.925Z,3.20
2023-01-21T17:14:10.913Z,3.20
2023-01-21T17:17:23.155Z,3.10
2023-01-21T17:20:47.872Z,3.10
2023-01-21T17:23:56.870Z,3.10
2023-01-21T17:27:05.896Z,3.10
2023-01-21T17:30:28.685Z,3.20
2023-01-21T17:33:31.858Z,3.20
2023-01-21T17:36:37.117Z,3.30
2023-01-21T17:40:01.034Z,3.30
2023-01-21T17:43:19.027Z,3.40
2023-01-21T17:46:26.205Z,3.40
2023-01-21T17:49:30.476Z,5.20
2023-01-21T17:52:33.835Z,3.50
2023-01-21T17:55:38.469Z,3.60
2023-01-21T17:58:50.914Z,3.50
2023-01-21T18:01:57.368Z,3.50
2023-01-21T18:05:01.310Z,3.70
2023-01-21T18:08:14.654Z,3.60
2023-01-21T18:11:20.230Z,3.60
2023-01-21T18:14:27.225Z,2.80
2023-01-21T18:17:33.139Z,3.50
2023-01-21T18:20:39.992Z,2.50
2023-01-21T18:23:43.355Z,3.50
2023-01-21T18:26:53.834Z,3.50
2023-01-21T18:29:58.956Z,3.50
2023-01-21T18:33:03.665Z,3.40
2023-01-21T18:36:11.467Z,3.20
2023-01-21T18:39:22.537Z,3.40
2023-01-21T18:42:29.994Z,3.40
2023-01-21T18:45:34.263Z,3.30
2023-01-21T18:48:43.443Z,3.70
2023-01-21T18:51:46.755Z,5.40
2023-01-21T18:54:49.822Z,4.90
2023-01-21T18:57:55.660Z,3.30
2023-01-21T19:00:58.730Z,3.30
2023-01-21T19:04:04.083Z,3.30
2023-01-21T19:07:13.650Z,3.40
2023-01-21T19:10:20.949Z,3.40
2023-01-21T19:13:25.690Z,2.60
2023-01-21T19:16:34.146Z,2.30
2023-01-21T19:19:39.906Z,3.30
2023-01-21T19:22:49.684Z,3.30
2023-01-21T19:26:11.854Z,3.20
2023-01-21T19:29:26.313Z,3.30
2023-01-21T19:32:30.868Z,3.30
2023-01-21T19:35:43.711Z,3.30
2023-01-21T19:38:58.774Z,4.40
2023-01-21T19:42:08.812Z,3.10
2023-01-21T19:45:18.461Z,3.30
2023-01-21T19:48:28.560Z,3.30
2023-01-21T19:51:34.202Z,3.30
2023-01-21T19:54:38.019Z,3.30
2023-01-21T19:57:41.543Z,3.30
2023-01-21T20:00:45.428Z,3.20
2023-01-21T20:03:59.581Z,3.10
2023-01-21T20:07:07.132Z,3.20
2023-01-21T20:10:19.430Z,1.40
2023-01-21T20:13:27.038Z,3.20
2023-01-21T20:16:31.068Z,3.00
2023-01-21T20:19:34.147Z,3.20
2023-01-21T20:22:38.726Z,3.20
2023-01-21T20:25:43.469Z,4.20
2023-01-21T20:28:51.387Z,2.70
2023-01-21T20:31:55.058Z,2.40
2023-01-21T20:34:57.985Z,3.20
2023-01-21T20:38:02.348Z,2.20
2023-01-21T20:41:06.191Z,3.20
2023-01-21T20:44:09.278Z,3.20
2023-01-21T20:47:12.295Z,3.20
2023-01-21T20:50:20.015Z,4.30
2023-01-21T20:53:24.889Z,3.20
2023-01-21T20:56:30.062Z,3.20
2023-01-21T20:59:34.430Z,3.30
2023-01-21T21:02:37.360Z,3.30
2023-01-21T21:05:40.451Z,3.30
2023-01-21T21:08:45.331Z,3.30
2023-01-21T21:11:48.907Z,5.30
2023-01-21T21:14:51.972Z,3.30
2023-01-21T21:17:55.104Z,3.30
2023-01-21T21:20:58.067Z,3.30
2023-01-21T21:24:06.417Z,3.30
2023-01-21T21:27:11.626Z,3.30
2023-01-21T21:30:17.099Z,3.30
2023-01-21T21:33:25.907Z,5.30
2023-01-21T21:36:50.825Z,3.40
2023-01-21T21:39:56.794Z,3.40
2023-01-21T21:43:17.443Z,1.80
2023-01-21T21:46:38.083Z,3.30
2023-01-21T21:49:41.114Z,3.50
2023-01-21T21:52:44.011Z,3.30
2023-01-21T21:55:48.690Z,3.30
2023-01-21T21:58:52.597Z,3.30
2023-01-21T22:01:55.819Z,3.30
2023-01-21T22:04:58.831Z,3.30
2023-01-21T22:08:01.875Z,3.20
2023-01-21T22:11:08.094Z,2.40
2023-01-21T22:14:12.431Z,4.60
2023-01-21T22:17:15.824Z,3.30
2023-01-21T22:20:19.000Z,3.30
2023-01-21T22:23:22.163Z,3.30
2023-01-21T22:26:28.016Z,3.30
2023-01-21T22:29:31.376Z,3.30
2023-01-21T22:32:34.405Z,1.90
2023-01-21T22:35:37.352Z,3.30
2023-01-21T22:38:40.990Z,4.50
2023-01-21T22:41:45.513Z,3.30
2023-01-21T22:44:48.441Z,3.30
2023-01-21T22:47:51.504Z,3.30
2023-01-21T22:50:56.689Z,3.30
2023-01-21T22:54:00.124Z,3.30
2023-01-21T22:57:04.547Z,3.30
2023-01-21T23:00:11.303Z,3.30
2023-01-21T23:03:15.327Z,4.00
2023-01-21T23:06:18.374Z,3.30
2023-01-21T23:09:22.164Z,3.30
2023-01-21T23:12:28.678Z,3.30
2023-01-21T23:15:31.897Z,3.60
2023-01-21T23:18:40.197Z,3.20
2023-01-21T23:21:43.159Z,2.00
2023-01-21T23:24:45.961Z,3.20
2023-01-21T23:27:50.394Z,3.10
2023-01-21T23:30:53.479Z,3.10
2023-01-21T23:33:57.289Z,3.10
2023-01-21T23:37:00.670Z,3.10
2023-01-21T23:40:05.006Z,4.20
2023-01-21T23:43:09.443Z,3.10
2023-01-21T23:46:16.270Z,3.10
2023-01-21T23:49:19.323Z,3.20
2023-01-21T23:52:23.444Z,3.20
2023-01-21T23:55:26.669Z,3.20
2023-01-21T23:58:31.045Z,3.30
